Eugene, Oregon
Current Conditions -  °F | °C
As of 3:54 AM on Monday 20 Oct 2014 (Local Time) from KEUG Reporting Station
Light Rain Light Rain  
Wind Chill: 58°   Ceiling: 5500
Heat Index: 58°   Visibility: 10mi
Dew Point: 55°   Wind: 9mph
Humidity: 90%   Direction: 180°S
Pressure: 29.77"   Gusts: NA
Location:  44.05°N, 123.08°W
Report Text: KEUG 201054Z AUTO 18008KT 10SM -RA OVC055 14/13 A2977 RMK AO2 SLP080 P0002 T01440128
Loading
Personal Weather Stations






























Interactive Weather Map New forecast layout! Learn more

10-Day Weather Forecast

Advertisements
Track Severe Weather on mobile